Flight Track Log - Related Links

Times and Time Zones

All times are in EDT time to prevent confusion due to time zone crossing. See the N31DL flight status page for this flight to view local times or setup timezone preferences in your user account.

Time Position Orientation Groundspeed Altitude Reporting Facility
EDT Latitude Longitude Course Direction KTS MPH feet Rate Location/Type
Sat 06:52:00 PM 32.5428 -90.0225 11° North  Level FlightAware Approximate
Sat 06:52:27 PM 32.5044 -90.0372 12° North 100 115 3,900  Level Memphis Center
Sat 06:53:00 PM 32.5814 -90.0136 12° North  Level Estimated
Sat 06:53:27 PM 32.5294 -90.0319 10° North 105 121 4,500  Level Memphis Center
Sat 06:54:00 PM 32.6199 -90.0043 12° North  Level FlightAware Approximate
Sat 06:54:27 PM 32.5567 -90.0244 13° North 105 121 5,000  Level Memphis Center
Sat 06:55:00 PM 32.6584 -89.9949 12° North  Level FlightAware Approximate
Sat 06:55:27 PM 32.5881 -90.0169 11° North 110 127 5,000  Level Memphis Center
Sat 06:56:00 PM 32.6969 -89.9855 12° North  Level FlightAware Approximate
Sat 06:56:27 PM 32.6256 -90.0069 13° North 117 135 5,000  Level Memphis Center
Sat 06:57:27 PM 32.6608 -89.9994 10° North 123 142 5,000  Level Memphis Center
Sat 06:58:27 PM 32.6986 -89.9894 13° North 128 147 5,000  Level Memphis Center
Sat 06:59:27 PM 32.7339 -89.9819 10° North 128 147 5,000  Level Memphis Center
Sat 07:00:27 PM 32.7714 -89.9742 10° North 128 147 5,000  Level Memphis Center
Sat 07:01:27 PM 32.8028 -89.9667 11° North 128 147 5,000  Level Memphis Center
Sat 07:02:27 PM 32.8403 -89.9617 North 128 147 5,000  Level Memphis Center
Sat 07:03:27 PM 32.8781 -89.9567 North 128 147 5,000  Level Memphis Center
Sat 07:04:27 PM 32.9175 -89.9514 North 128 147 5,000  Level Memphis Center
Sat 07:05:27 PM 32.9550 -89.9414 13° North 128 147 5,000  Level Memphis Center
Sat 07:06:27 PM 32.9906 -89.9311 14° North 128 147 5,000  Level Memphis Center
Sat 07:07:27 PM 33.0281 -89.9211 13° North 123 142 5,000  Level Memphis Center
Sat 07:08:27 PM 33.0636 -89.9111 13° North 123 142 5,000  Level Memphis Center
Sat 07:09:27 PM 33.1011 -89.9033 10° North 123 142 5,000  Level Memphis Center
Sat 07:10:27 PM 33.1367 -89.8958 10° North 123 142 5,000  Level Memphis Center
Sat 07:11:27 PM 33.1742 -89.8881 10° North 123 142 5,000  Level Memphis Center
Sat 07:12:27 PM 33.2117 -89.8831 North 123 142 5,000  Level Memphis Center
Sat 07:13:27 PM 33.2472 -89.8728 14° North 128 147 5,000  Level Memphis Center
Sat 07:14:27 PM 33.2825 -89.8653 10° North 128 147 5,000  Level Memphis Center
Sat 07:15:27 PM 33.3181 -89.8550 14° North 128 147 5,000  Level Memphis Center
Sat 07:16:27 PM 33.3533 -89.8475 10° North 128 147 5,000  Level Memphis Center
Sat 07:17:27 PM 33.3889 -89.8397 10° North 128 147 5,000  Level Memphis Center
Sat 07:18:27 PM 33.4244 -89.8294 14° North 128 147 5,000  Level Memphis Center
Sat 07:19:27 PM 33.4619 -89.8194 13° North 128 147 5,000  Level Memphis Center
Sat 07:20:27 PM 33.4972 -89.8117 10° North 128 147 5,000  Level Memphis Center
Sat 07:21:27 PM 33.5328 -89.8039 10° North 128 147 5,000  Level Memphis Center
Sat 07:22:27 PM 33.5683 -89.7964 10° North 128 147 5,000  Level Memphis Center
Sat 07:23:27 PM 33.6036 -89.7886 10° North 128 147 5,000  Level Memphis Center
Sat 07:24:27 PM 33.6411 -89.7808 10° North 128 147 5,000  Level Memphis Center
Sat 07:25:27 PM 33.6767 -89.7731 10° North 128 147 5,000  Level Memphis Center
Sat 07:26:27 PM 33.7122 -89.7628 14° North 128 147 5,000  Level Memphis Center
Sat 07:27:27 PM 33.7475 -89.7550 10° North 128 147 5,000  Level Memphis Center
Sat 07:28:27 PM 33.7850 -89.7450 12° North 128 147 5,000  Level Memphis Center
Sat 07:29:27 PM 33.8247 -89.7347 12° North 128 147 5,000  Level Memphis Center
Sat 07:30:27 PM 33.8622 -89.7267 10° North 128 147 5,000  Level Memphis Center
Sat 07:31:27 PM 33.8933 -89.7167 15° North 128 147 5,000  Level Memphis Center
Sat 07:32:27 PM 33.9311 -89.7086 10° North 128 147 5,000  Level Memphis Center
Sat 07:33:27 PM 33.9686 -89.7011 North 128 147 5,000  Level Memphis Center
Sat 07:34:27 PM 34.0061 -89.6931 10° North 128 147 5,000  Level Memphis Center
Sat 07:35:27 PM 34.0436 -89.6828 13° North 128 147 5,000  Level Memphis Center
Sat 07:36:27 PM 34.0789 -89.6775 North 133 153 5,000  Level Memphis Center
Sat 07:37:27 PM 34.1164 -89.6647 16° North 133 153 5,000  Level Memphis Center
Sat 07:38:27 PM 34.1561 -89.6544 12° North 133 153 5,000  Level Memphis Center
Sat 07:39:27 PM 34.1936 -89.6464 10° North 133 153 5,000  Level Memphis Center
Sat 07:40:27 PM 34.2311 -89.6386 10° North 128 147 5,000  Level Memphis Center
Sat 07:41:27 PM 34.2686 -89.6283 13° North 128 147 5,000  Level Memphis Center
Sat 07:42:27 PM 34.3042 -89.6206 10° North 128 147 5,000  Level Memphis Center
Sat 07:43:27 PM 34.3394 -89.6075 17° North 128 147 5,000  Level Memphis Center
Sat 07:44:27 PM 34.3769 -89.5997 10° North 128 147 5,000 -100 Level Memphis Center
Sat 07:45:27 PM 34.4125 -89.5919 10° North 128 147 4,800 -300 Descending Memphis Center
Sat 07:46:27 PM 34.4519 -89.5814 12° North 128 147 4,400 -400 Descending Memphis Center
Sat 07:47:27 PM 34.4917 -89.5733 North 133 153 4,000 -250 Descending Memphis Center
Sat 07:48:27 PM 34.5269 -89.5656 10° North 138 159 3,900 -50 Descending Memphis Center
Sat 07:49:27 PM 34.5644 -89.5550 13° North 143 165 3,900  Level Memphis Center
Sat 07:50:27 PM 34.6000 -89.5522 North 137 158 3,900  Level Memphis Center
Sat 07:51:27 PM 34.6375 -89.5444 10° North 131 151 3,900  Level Memphis Center
Sat 07:52:27 PM 34.6708 -89.5339 15° North 126 145 3,900  Level Memphis Center
Sat 07:53:27 PM 34.7061 -89.5208 17° North 126 145 3,900  Level Memphis Center
Sat 07:54:27 PM 34.7394 -89.5106 14° North 126 145 3,900  Level Memphis Center
Sat 07:55:27 PM 34.7728 -89.4925 24° Northeast 126 145 3,900 -50 Level Memphis Center
Sat 07:56:27 PM 34.8081 -89.4869 North 126 145 3,800 -300 Descending Memphis Center
Sat 07:57:27 PM 34.8519 -89.4689 19° North 131 151 3,300 -400 Descending Memphis Center
Sat 07:58:27 PM 34.8914 -89.4608 10° North 136 157 3,000 -250 Descending Memphis Center
Sat 07:59:27 PM 34.9308 -89.4503 12° North 144 166 2,800 -200 Descending Memphis Center
Sat 08:01:00 PM 34.9857 -89.4329 North  Level FlightAware Approximate
Sat 08:08:00 PM 35.2000 -89.3833 15° North  Level FlightAware Approximate
Sat 08:09:00 PM 35.2077 -89.3944 15° North  Level Estimated
Sat 08:10:00 PM 35.2077 -89.3944 15° North  Level Estimated
Sat 08:11:00 PM 35.2077 -89.3944 15° North  Level Estimated
Sat 08:12:00 PM 35.2077 -89.3944 15° North  Level Estimated
Sat 08:13:00 PM 35.2077 -89.3944 15° North  Level Estimated
Sat 08:14:00 PM 35.2077 -89.3944 15° North  Level Estimated
Sat 08:15:00 PM 35.2077 -89.3944 15° North  Level Estimated
Sat 08:16:00 PM 35.2077 -89.3944 15° North  Level Estimated

Login

Don't have an account? Register now (free) for customized features, flight alerts, and more!